Flight Track Log - Related Links

Times and Time Zones

All times are in EST time to prevent confusion due to time zone crossing. See the N283PT flight status page for this flight to view local times or setup timezone preferences in your user account.

Time Position Orientation Groundspeed Altitude Reporting Facility
EST Latitude Longitude Course Direction KTS MPH feet Rate Location/Type
Sun 12:52:57 PM 44.7411 -85.6333 172° South 153 176 1,800  Level Chicago Center
Sun 12:53:51 PM 44.7525 -85.6150 49° Northeast 213 245 1,900 155 Climbing Minneapolis Center
Sun 12:54:53 PM 44.7464 -85.5575 98° East 169 194 2,100 726 Climbing Minneapolis Center
Sun 12:55:55 PM 44.7053 -85.5400 163° South 169 194 3,400 1,268 Climbing Minneapolis Center
Sun 12:56:56 PM 44.6633 -85.5353 175° South 157 181 4,700 1,122 Climbing Minneapolis Center
Sun 12:57:58 PM 44.6206 -85.5286 174° South 155 178 5,700 1,113 Climbing Minneapolis Center
Sun 12:58:00 PM 44.2049 -85.5212 172° South  Level Estimated
Sun 12:59:00 PM 44.5672 -85.5206 174° South 157 181 7,000  Level Minneapolis Center
Sun 01:00:01 PM 44.5214 -85.5117 172° South 162 186 8,100 1,073 Climbing Minneapolis Center
Sun 01:01:03 PM 44.4747 -85.5039 173° South 167 192 9,200 968 Climbing Minneapolis Center
Sun 01:02:05 PM 44.4258 -85.4994 176° South 172 198 10,100 927 Climbing Minneapolis Center
Sun 01:03:06 PM 44.3747 -85.4939 176° South 180 207 11,100 1,024 Climbing Minneapolis Center
Sun 01:04:08 PM 44.3247 -85.4883 175° South 181 208 12,200 919 Climbing Minneapolis Center
Sun 01:05:10 PM 44.2731 -85.4806 174° South 184 212 13,000 829 Climbing Minneapolis Center
Sun 01:06:11 PM 44.2186 -85.4731 174° South 193 222 13,900 878 Climbing Minneapolis Center
Sun 01:07:13 PM 44.1511 -85.4622 173° South 200 230 14,800 871 Climbing Minneapolis Center
Sun 01:08:15 PM 44.0908 -85.4544 175° South 212 244 15,700 871 Climbing Minneapolis Center
Sun 01:09:17 PM 44.0281 -85.4467 175° South 215 247 16,600 829 Climbing Minneapolis Center
Sun 01:10:18 PM 43.9672 -85.4389 175° South 218 251 17,400 683 Climbing Minneapolis Center
Sun 01:11:20 PM 43.9056 -85.4303 174° South 222 255 18,000 629 Climbing Minneapolis Center
Sun 01:12:22 PM 43.8442 -85.4217 174° South 221 254 18,700 774 Climbing Minneapolis Center
Sun 01:13:24 PM 43.7825 -85.4125 174° South 223 257 19,600 878 Climbing Minneapolis Center
Sun 01:14:25 PM 43.7228 -85.4044 174° South 218 251 20,500 829 Climbing Minneapolis Center
Sun 01:15:27 PM 43.6517 -85.3950 175° South 215 247 21,300 726 Climbing Minneapolis Center
Sun 01:16:29 PM 43.5908 -85.3881 175° South 218 251 22,000 591 Climbing Minneapolis Center
Sun 01:17:39 PM 43.5306 -85.3789 174° South 219 252 22,600 545 Climbing Chicago Center
Sun 01:18:41 PM 43.4550 -85.3697 175° South 227 261 23,200 532 Climbing Chicago Center
Sun 01:19:43 PM 43.3889 -85.3600 174° South 236 272 23,700 390 Climbing Chicago Center
Sun 01:20:44 PM 43.3197 -85.3519 175° South 246 283 24,000 146 Climbing Chicago Center
Sun 01:21:46 PM 43.2469 -85.3433 175° South 259 298 24,000  Level Chicago Center
Sun 01:22:48 PM 43.1700 -85.3386 177° South 273 314 24,000  Level Chicago Center
Sun 01:23:50 PM 43.0925 -85.3381 180° South 277 319 24,000  Level Chicago Center
Sun 01:24:51 PM 43.0136 -85.3367 179° South 282 325 24,000  Level Chicago Center
Sun 01:25:53 PM 42.9350 -85.3333 178° South 281 323 24,000  Level Chicago Center
Sun 01:26:55 PM 42.8403 -85.3306 179° South 282 325 24,000  Level Chicago Center
Sun 01:27:57 PM 42.7619 -85.3300 180° South 282 325 24,000  Level Chicago Center
Sun 01:28:58 PM 42.6836 -85.3264 178° South 281 323 24,000  Level Chicago Center
Sun 01:30:00 PM 42.6050 -85.3253 179° South 281 323 24,000  Level Chicago Center
Sun 01:31:02 PM 42.5264 -85.3225 179° South 283 326 24,000  Level Chicago Center
Sun 01:32:04 PM 42.4469 -85.3167 177° South 285 328 24,000  Level Chicago Center
Sun 01:33:06 PM 42.3675 -85.3119 177° South 285 328 24,000  Level Chicago Center
Sun 01:34:07 PM 42.2711 -85.3067 178° South 288 331 24,000  Level Chicago Center
Sun 01:35:10 PM 42.1900 -85.3019 178° South 290 334 24,000  Level Chicago Center
Sun 01:36:11 PM 42.1103 -85.2978 178° South 287 330 24,000  Level Chicago Center
Sun 01:37:13 PM 42.0303 -85.2922 177° South 287 330 24,000  Level Chicago Center
Sun 01:38:15 PM 41.9411 -85.2864 177° South 285 328 24,000  Level Chicago Center
Sun 01:39:17 PM 41.8614 -85.2817 177° South 285 328 24,000  Level Chicago Center
Sun 01:40:18 PM 41.7817 -85.2767 177° South 286 329 24,000  Level Chicago Center
Sun 01:41:20 PM 41.7011 -85.2725 178° South 286 329 24,000  Level Chicago Center
Sun 01:42:22 PM 41.6206 -85.2678 177° South 285 328 24,000  Level Chicago Center
Sun 01:43:24 PM 41.5397 -85.2631 177° South 285 328 24,000  Level Chicago Center
Sun 01:44:26 PM 41.4600 -85.2578 177° South 285 328 24,000  Level Chicago Center
Sun 01:45:28 PM 41.3808 -85.2525 177° South 284 327 24,000  Level Chicago Center
Sun 01:46:30 PM 41.3019 -85.2472 177° South 284 327 24,000  Level Chicago Center
Sun 01:47:32 PM 41.2075 -85.2425 178° South 282 325 24,000  Level Chicago Center
Sun 01:48:33 PM 41.1289 -85.2369 177° South 283 326 24,000  Level Chicago Center
Sun 01:49:35 PM 41.0522 -85.2328 178° South 279 321 24,000  Level Chicago Center
Sun 01:50:37 PM 40.9756 -85.2289 178° South 277 319 24,000  Level Chicago Center
Sun 01:51:39 PM 40.8997 -85.2236 177° South 274 315 24,000  Level Chicago Center
Sun 01:52:41 PM 40.8242 -85.2192 177° South 272 313 24,000  Level Chicago Center
Sun 01:53:43 PM 40.7500 -85.2158 178° South 270 311 24,000  Level Chicago Center
Sun 01:54:45 PM 40.6594 -85.2117 178° South 270 311 24,000  Level Chicago Center
Sun 01:55:47 PM 40.5894 -85.2100 179° South 267 307 24,000  Level Chicago Center
Sun 01:56:49 PM 40.5136 -85.2028 176° South 271 312 24,000  Level Chicago Center
Sun 01:57:50 PM 40.4381 -85.1997 178° South 272 313 24,000  Level Chicago Center
Sun 01:58:44 PM 40.3619 -85.1950 177° South 271 312 24,000  Level Indianapolis Center
Sun 01:59:46 PM 40.2872 -85.1900 177° South 271 312 24,000  Level Indianapolis Center
Sun 02:00:47 PM 40.2128 -85.1850 177° South 271 312 24,000  Level Indianapolis Center
Sun 02:01:49 PM 40.1383 -85.1808 178° South 271 312 24,000  Level Indianapolis Center
Sun 02:02:50 PM 40.0642 -85.1772 178° South 270 311 24,000  Level Indianapolis Center
Sun 02:03:52 PM 39.9744 -85.1694 176° South 270 311 24,000  Level Indianapolis Center
Sun 02:04:53 PM 39.9003 -85.1647 177° South 270 311 24,000  Level Indianapolis Center
Sun 02:05:55 PM 39.8275 -85.1603 177° South 269 310 24,000  Level Indianapolis Center
Sun 02:06:57 PM 39.7528 -85.1556 177° South 268 308 24,000  Level Indianapolis Center
Sun 02:07:58 PM 39.6789 -85.1508 177° South 268 308 24,000  Level Indianapolis Center
Sun 02:09:00 PM 39.6053 -85.1472 178° South 268 308 24,000  Level Indianapolis Center
Sun 02:10:01 PM 39.5311 -85.1431 178° South 268 308 24,000  Level Indianapolis Center
Sun 02:11:03 PM 39.4575 -85.1392 178° South 268 308 24,000  Level Indianapolis Center
Sun 02:12:04 PM 39.3703 -85.1342 177° South 266 306 24,000  Level Indianapolis Center
Sun 02:13:06 PM 39.2978 -85.1303 178° South 263 303 24,000  Level Indianapolis Center
Sun 02:14:07 PM 39.2247 -85.1256 177° South 263 303 24,000  Level Indianapolis Center
Sun 02:15:09 PM 39.1519 -85.1219 178° South 263 303 24,000  Level Indianapolis Center
Sun 02:16:10 PM 39.0789 -85.1167 177° South 263 303 24,000  Level Indianapolis Center
Sun 02:17:11 PM 39.0064 -85.1139 178° South 262 302 24,000  Level Indianapolis Center
Sun 02:18:13 PM 38.9342 -85.1097 177° South 262 302 24,000  Level Indianapolis Center
Sun 02:19:14 PM 38.8619 -85.1044 177° South 262 302 24,000  Level Indianapolis Center
Sun 02:20:16 PM 38.7892 -85.1019 178° South 262 302 24,000  Level Indianapolis Center
Sun 02:21:17 PM 38.7031 -85.0975 178° South 262 302 24,000  Level Indianapolis Center
Sun 02:22:19 PM 38.6306 -85.0928 177° South 261 300 24,000  Level Indianapolis Center
Sun 02:23:20 PM 38.5633 -85.0897 178° South 261 300 24,000  Level Indianapolis Center
Sun 02:24:22 PM 38.4786 -85.0833 177° South 261 300 24,000  Level Indianapolis Center
Sun 02:25:23 PM 38.4069 -85.0811 179° South 260 299 24,000  Level Indianapolis Center
Sun 02:26:24 PM 38.3353 -85.0769 177° South 259 298 24,000  Level Indianapolis Center
Sun 02:27:26 PM 38.2642 -85.0725 177° South 258 297 24,000  Level Indianapolis Center
Sun 02:28:27 PM 38.1931 -85.0681 177° South 258 297 24,000  Level Indianapolis Center
Sun 02:29:29 PM 38.1206 -85.0636 177° South 258 297 24,000  Level Indianapolis Center
Sun 02:30:30 PM 38.0489 -85.0600 178° South 258 297 24,000  Level Indianapolis Center
Sun 02:31:32 PM 37.9778 -85.0556 177° South 258 297 24,000  Level Indianapolis Center
Sun 02:32:33 PM 37.8939 -85.0511 178° South 258 297 24,000  Level Indianapolis Center
Sun 02:33:35 PM 37.8203 -85.0478 178° South 258 297 24,000  Level Indianapolis Center
Sun 02:34:36 PM 37.7469 -85.0450 178° South 261 300 24,000  Level Indianapolis Center
Sun 02:35:38 PM 37.6767 -85.0397 177° South 259 298 24,000  Level Indianapolis Center
Sun 02:36:40 PM 37.6053 -85.0364 178° South 259 298 24,000  Level Indianapolis Center
Sun 02:37:41 PM 37.5342 -85.0328 178° South 258 297 24,000  Level Indianapolis Center
Sun 02:38:43 PM 37.4622 -85.0297 178° South 258 297 24,000  Level Indianapolis Center
Sun 02:39:44 PM 37.3789 -85.0242 177° South 257 296 24,000  Level Indianapolis Center
Sun 02:40:46 PM 37.3075 -85.0206 178° South 257 296 24,000  Level Indianapolis Center
Sun 02:41:48 PM 37.2367 -85.0167 177° South 257 296 24,000  Level Indianapolis Center
Sun 02:42:49 PM 37.1658 -85.0122 177° South 256 295 24,000  Level Indianapolis Center
Sun 02:43:51 PM 37.0947 -85.0094 178° South 256 295 24,000  Level Indianapolis Center
Sun 02:44:52 PM 37.0164 -85.0047 177° South 256 295 24,000  Level Indianapolis Center
Sun 02:45:54 PM 36.9456 -85.0008 177° South 256 295 24,000  Level Indianapolis Center
Sun 02:46:56 PM 36.8744 -84.9972 178° South 256 295 24,000  Level Indianapolis Center
Sun 02:47:57 PM 36.8033 -84.9944 178° South 256 295 24,000  Level Indianapolis Center
Sun 02:48:59 PM 36.7322 -84.9908 178° South 256 295 24,000  Level Indianapolis Center
Sun 02:50:01 PM 36.6589 -84.9867 177° South 258 297 24,000  Level Indianapolis Center
Sun 02:51:02 PM 36.5733 -84.9833 178° South 258 297 24,000 -293 Level Indianapolis Center
Sun 02:52:04 PM 36.4978 -84.9783 177° South 266 306 23,400 -532 Descending Indianapolis Center
Sun 02:53:06 PM 36.4197 -84.9739 177° South 276 318 22,900 -537 Descending Indianapolis Center
Sun 02:54:07 PM 36.3425 -84.9706 178° South 276 318 22,300 -439 Descending Indianapolis Center
Sun 02:55:09 PM 36.2664 -84.9664 177° South 276 318 22,000 -145 Descending Indianapolis Center
Sun 02:56:11 PM 36.2008 -84.9794 189° South 245 282 22,000  Level Indianapolis Center
Sun 02:57:12 PM 36.1339 -84.9883 186° South 243 280 22,000  Level Indianapolis Center
Sun 02:58:14 PM 36.0683 -84.9981 187° South 242 278 22,000  Level Indianapolis Center
Sun 02:59:16 PM 35.9903 -85.0083 186° South 240 276 22,000  Level Indianapolis Center
Sun 03:00:17 PM 35.9331 -85.0175 187° South 239 275 22,000  Level Indianapolis Center
Sun 03:01:11 PM 35.8708 -85.0278 188° South 237 273 22,000  Level Atlanta Center
Sun 03:02:11 PM 35.7956 -85.0397 187° South 237 273 22,000  Level Atlanta Center
Sun 03:03:11 PM 35.7308 -85.0467 185° South 237 273 22,000  Level Atlanta Center
Sun 03:04:11 PM 35.6661 -85.0561 187° South 237 273 22,000  Level Atlanta Center
Sun 03:05:11 PM 35.5992 -85.0656 187° South 237 273 22,000  Level Atlanta Center
Sun 03:06:11 PM 35.5344 -85.0750 187° South 237 273 22,000  Level Atlanta Center
Sun 03:07:11 PM 35.4697 -85.0842 187° South 237 273 22,000  Level Atlanta Center
Sun 03:08:11 PM 35.4050 -85.0936 187° South 237 273 22,000  Level Atlanta Center
Sun 03:09:11 PM 35.3403 -85.1031 187° South 237 273 22,000  Level Atlanta Center
Sun 03:10:11 PM 35.2733 -85.1122 186° South 237 273 22,000  Level Atlanta Center
Sun 03:11:11 PM 35.2108 -85.1192 185° South 237 273 22,000  Level Atlanta Center
Sun 03:12:11 PM 35.1481 -85.1286 187° South 237 273 22,000 -250 Level Atlanta Center
Sun 03:13:11 PM 35.0811 -85.1403 188° South 237 273 21,500 -900 Descending Atlanta Center
Sun 03:14:11 PM 35.0061 -85.1494 186° South 252 290 20,200 -1,250 Descending Atlanta Center
Sun 03:15:11 PM 34.9286 -85.1536 183° South 269 310 19,000 900 Descending Atlanta Center
Sun 03:16:11 PM 34.8517 -85.1525 179° South 281 323 22,000 -1,600 Climbing Atlanta Center
Sun 03:17:11 PM 34.7744 -85.1464 176° South 281 323 15,800 -3,800 Descending Atlanta Center
Sun 03:18:11 PM 34.6972 -85.1453 179° South 281 323 14,400 -1,550 Descending Atlanta Center
Sun 03:19:11 PM 34.6264 -85.1394 176° South 269 310 12,700 -1,450 Descending Atlanta Center
Sun 03:20:11 PM 34.5594 -85.1358 177° South 269 310 11,500 -1,250 Descending Atlanta Center
Sun 03:21:11 PM 34.4931 -85.0897 150° Southeast 269 310 10,200 -1,300 Descending Atlanta Center
Sun 03:22:11 PM 34.4308 -85.0411 147° Southeast 274 315 8,900 -1,100 Descending Atlanta Center
Sun 03:23:11 PM 34.3708 -84.9925 146° Southeast 265 305 8,000 -500 Descending Atlanta Center
Sun 03:24:11 PM 34.3169 -84.9542 150° Southeast 240 276 7,900 -50 Descending Atlanta Center
Sun 03:25:11 PM 34.2669 -84.9161 148° Southeast 219 252 7,900 -50 Level Atlanta Center
Sun 03:26:11 PM 34.2192 -84.8803 148° Southeast 209 241 7,800 -250 Descending Atlanta Center
Sun 03:27:11 PM 34.1631 -84.8372 148° Southeast 209 241 7,400 -450 Descending Atlanta Center
Sun 03:28:11 PM 34.1092 -84.7939 146° Southeast 215 247 6,900 -650 Descending Atlanta Center
Sun 03:29:11 PM 34.0594 -84.7533 146° Southeast 222 255 6,100 -900 Descending Atlanta Center
Sun 03:30:11 PM 34.0094 -84.7131 146° Southeast 222 255 5,100 -550 Descending Atlanta Center
Sun 03:31:11 PM 33.9658 -84.6775 146° Southeast 209 241 5,000 -500 Descending Atlanta Center
Sun 03:32:11 PM 33.9264 -84.6447 145° Southeast 192 221 4,100 -810 Descending Atlanta Center
Sun 03:34:31 PM 33.8500 -84.5500 134° Southeast 165 190 2,300 -646 Descending Atlanta TRACON
Sun 03:35:26 PM 33.8167 -84.5167 140° Southeast 135 155 2,000 -522 Descending Atlanta TRACON
Sun 03:36:26 PM 33.7833 -84.5000 157° South 128 147 1,300 -700 Descending Atlanta TRACON
Sun 03:38:00 PM 33.7791 -84.5214 155° Southeast  Level Estimated
Sun 03:45:00 PM 33.7791 -84.5214 320° Northwest  Level Estimated
Sun 03:46:00 PM 33.7791 -84.5214 320° Northwest  Level Estimated

Login

Don't have an account? Register now (free) for customized features, flight alerts, and more!